sensor_id;sensor_type;location;lat;lon;timestamp;temperature;humidity
9425;DHT22;17139;52.140;11.636;2023-08-30T00:00:53;15.00;62.80
9425;DHT22;17139;52.140;11.636;2023-08-30T00:03:20;15.60;63.10
9425;DHT22;17139;52.140;11.636;2023-08-30T00:05:47;15.40;62.00
9425;DHT22;17139;52.140;11.636;2023-08-30T00:08:14;15.50;62.50
9425;DHT22;17139;52.140;11.636;2023-08-30T00:10:44;15.40;62.00
9425;DHT22;17139;52.140;11.636;2023-08-30T00:13:11;15.20;62.20
9425;DHT22;17139;52.140;11.636;2023-08-30T00:15:39;15.10;62.50
9425;DHT22;17139;52.140;11.636;2023-08-30T00:18:06;15.00;62.60
9425;DHT22;17139;52.140;11.636;2023-08-30T00:20:33;15.00;62.70
9425;DHT22;17139;52.140;11.636;2023-08-30T00:23:01;14.90;62.70
9425;DHT22;17139;52.140;11.636;2023-08-30T00:25:28;14.90;62.70
9425;DHT22;17139;52.140;11.636;2023-08-30T00:27:55;15.10;63.30
9425;DHT22;17139;52.140;11.636;2023-08-30T00:30:22;15.10;62.60
9425;DHT22;17139;52.140;11.636;2023-08-30T00:32:50;15.10;62.90
9425;DHT22;17139;52.140;11.636;2023-08-30T00:35:17;15.10;62.70
9425;DHT22;17139;52.140;11.636;2023-08-30T00:37:44;14.90;62.70
9425;DHT22;17139;52.140;11.636;2023-08-30T00:40:11;14.90;62.80
9425;DHT22;17139;52.140;11.636;2023-08-30T00:42:38;14.90;62.90
9425;DHT22;17139;52.140;11.636;2023-08-30T00:45:07;14.90;63.00
9425;DHT22;17139;52.140;11.636;2023-08-30T00:47:34;14.90;63.00
9425;DHT22;17139;52.140;11.636;2023-08-30T00:50:03;14.90;63.00
9425;DHT22;17139;52.140;11.636;2023-08-30T00:52:31;14.90;63.00
9425;DHT22;17139;52.140;11.636;2023-08-30T00:54:58;14.90;62.90
9425;DHT22;17139;52.140;11.636;2023-08-30T00:57:25;14.90;63.00
9425;DHT22;17139;52.140;11.636;2023-08-30T00:59:53;15.60;63.40
9425;DHT22;17139;52.140;11.636;2023-08-30T01:02:20;15.40;62.40
9425;DHT22;17139;52.140;11.636;2023-08-30T01:04:48;15.20;62.40
9425;DHT22;17139;52.140;11.636;2023-08-30T01:07:17;15.10;62.60
9425;DHT22;17139;52.140;11.636;2023-08-30T01:09:44;15.00;62.80
9425;DHT22;17139;52.140;11.636;2023-08-30T01:12:17;14.90;62.90
9425;DHT22;17139;52.140;11.636;2023-08-30T01:14:53;14.90;63.00
9425;DHT22;17139;52.140;11.636;2023-08-30T01:17:23;14.90;63.10
9425;DHT22;17139;52.140;11.636;2023-08-30T01:19:55;15.40;63.20
9425;DHT22;17139;52.140;11.636;2023-08-30T01:22:35;15.30;62.30
9425;DHT22;17139;52.140;11.636;2023-08-30T01:25:16;15.50;62.80
9425;DHT22;17139;52.140;11.636;2023-08-30T01:27:47;15.30;62.30
9425;DHT22;17139;52.140;11.636;2023-08-30T01:30:16;15.10;62.70
9425;DHT22;17139;52.140;11.636;2023-08-30T01:32:44;15.00;62.80
9425;DHT22;17139;52.140;11.636;2023-08-30T01:35:12;14.90;62.90
9425;DHT22;17139;52.140;11.636;2023-08-30T01:37:44;14.80;63.00
9425;DHT22;17139;52.140;11.636;2023-08-30T01:40:12;14.80;63.20
9425;DHT22;17139;52.140;11.636;2023-08-30T01:42:40;14.70;63.20
9425;DHT22;17139;52.140;11.636;2023-08-30T01:45:10;15.30;63.30
9425;DHT22;17139;52.140;11.636;2023-08-30T01:47:40;15.10;62.50
9425;DHT22;17139;52.140;11.636;2023-08-30T01:50:08;14.80;62.70
9425;DHT22;17139;52.140;11.636;2023-08-30T01:52:36;14.60;63.10
9425;DHT22;17139;52.140;11.636;2023-08-30T01:55:05;14.50;63.40
9425;DHT22;17139;52.140;11.636;2023-08-30T01:57:32;14.40;63.50
9425;DHT22;17139;52.140;11.636;2023-08-30T01:59:59;14.30;63.50
9425;DHT22;17139;52.140;11.636;2023-08-30T02:02:30;14.10;63.70
9425;DHT22;17139;52.140;11.636;2023-08-30T02:04:57;14.10;63.90
9425;DHT22;17139;52.140;11.636;2023-08-30T02:07:28;14.10;64.10
9425;DHT22;17139;52.140;11.636;2023-08-30T02:09:58;14.00;64.30
9425;DHT22;17139;52.140;11.636;2023-08-30T02:12:31;13.90;64.30
9425;DHT22;17139;52.140;11.636;2023-08-30T02:15:00;13.90;64.30
9425;DHT22;17139;52.140;11.636;2023-08-30T02:17:31;13.90;64.30
9425;DHT22;17139;52.140;11.636;2023-08-30T02:19:58;13.80;64.90
9425;DHT22;17139;52.140;11.636;2023-08-30T02:22:25;13.80;64.20
9425;DHT22;17139;52.140;11.636;2023-08-30T02:24:52;13.70;64.10
9425;DHT22;17139;52.140;11.636;2023-08-30T02:27:19;13.70;64.10
9425;DHT22;17139;52.140;11.636;2023-08-30T02:29:46;13.60;64.10
9425;DHT22;17139;52.140;11.636;2023-08-30T02:32:13;13.60;64.30
9425;DHT22;17139;52.140;11.636;2023-08-30T02:34:49;13.50;64.20
9425;DHT22;17139;52.140;11.636;2023-08-30T02:37:16;14.50;64.70
9425;DHT22;17139;52.140;11.636;2023-08-30T02:39:43;14.20;63.50
9425;DHT22;17139;52.140;11.636;2023-08-30T02:42:10;14.50;64.80
9425;DHT22;17139;52.140;11.636;2023-08-30T02:44:37;14.20;63.60
9425;DHT22;17139;52.140;11.636;2023-08-30T02:47:05;14.00;64.20
9425;DHT22;17139;52.140;11.636;2023-08-30T02:49:32;13.80;64.20
9425;DHT22;17139;52.140;11.636;2023-08-30T02:52:00;13.70;64.50
9425;DHT22;17139;52.140;11.636;2023-08-30T02:54:28;13.60;64.50
9425;DHT22;17139;52.140;11.636;2023-08-30T02:56:55;13.60;64.60
9425;DHT22;17139;52.140;11.636;2023-08-30T02:59:22;13.50;64.60
9425;DHT22;17139;52.140;11.636;2023-08-30T03:01:49;13.50;65.00
9425;DHT22;17139;52.140;11.636;2023-08-30T03:04:16;13.40;64.60
9425;DHT22;17139;52.140;11.636;2023-08-30T03:06:43;13.30;64.60
9425;DHT22;17139;52.140;11.636;2023-08-30T03:09:12;14.10;64.80
9425;DHT22;17139;52.140;11.636;2023-08-30T03:11:40;13.90;63.80
9425;DHT22;17139;52.140;11.636;2023-08-30T03:14:07;13.60;64.00
9425;DHT22;17139;52.140;11.636;2023-08-30T03:16:34;13.40;64.40
9425;DHT22;17139;52.140;11.636;2023-08-30T03:19:01;13.30;64.60
9425;DHT22;17139;52.140;11.636;2023-08-30T03:21:28;13.20;64.70
9425;DHT22;17139;52.140;11.636;2023-08-30T03:23:55;13.10;64.70
9425;DHT22;17139;52.140;11.636;2023-08-30T03:26:23;13.10;64.80
9425;DHT22;17139;52.140;11.636;2023-08-30T03:28:50;13.40;65.30
9425;DHT22;17139;52.140;11.636;2023-08-30T03:31:19;13.30;64.20
9425;DHT22;17139;52.140;11.636;2023-08-30T03:33:46;13.40;64.90
9425;DHT22;17139;52.140;11.636;2023-08-30T03:36:16;13.30;64.20
9425;DHT22;17139;52.140;11.636;2023-08-30T03:38:44;13.10;64.30
9425;DHT22;17139;52.140;11.636;2023-08-30T03:41:12;13.00;64.50
9425;DHT22;17139;52.140;11.636;2023-08-30T03:43:40;12.90;64.50
9425;DHT22;17139;52.140;11.636;2023-08-30T03:46:07;12.80;64.50
9425;DHT22;17139;52.140;11.636;2023-08-30T03:48:35;12.80;64.70
9425;DHT22;17139;52.140;11.636;2023-08-30T03:51:02;12.70;64.60
9425;DHT22;17139;52.140;11.636;2023-08-30T03:53:29;12.70;64.60
9425;DHT22;17139;52.140;11.636;2023-08-30T03:55:56;12.60;64.60
9425;DHT22;17139;52.140;11.636;2023-08-30T03:58:24;12.60;64.80
9425;DHT22;17139;52.140;11.636;2023-08-30T04:00:52;13.40;64.60
9425;DHT22;17139;52.140;11.636;2023-08-30T04:03:19;13.20;63.60
9425;DHT22;17139;52.140;11.636;2023-08-30T04:05:46;12.90;63.90
9425;DHT22;17139;52.140;11.636;2023-08-30T04:08:13;12.80;64.20
9425;DHT22;17139;52.140;11.636;2023-08-30T04:10:41;12.70;64.40
9425;DHT22;17139;52.140;11.636;2023-08-30T04:13:09;12.60;64.50
9425;DHT22;17139;52.140;11.636;2023-08-30T04:15:37;12.50;64.40
9425;DHT22;17139;52.140;11.636;2023-08-30T04:18:06;12.50;64.60
9425;DHT22;17139;52.140;11.636;2023-08-30T04:20:33;12.90;64.90
9425;DHT22;17139;52.140;11.636;2023-08-30T04:23:01;13.20;64.60
9425;DHT22;17139;52.140;11.636;2023-08-30T04:25:28;13.60;63.90
9425;DHT22;17139;52.140;11.636;2023-08-30T04:27:55;14.10;63.00
9425;DHT22;17139;52.140;11.636;2023-08-30T04:30:23;13.70;62.70
9425;DHT22;17139;52.140;11.636;2023-08-30T04:32:50;13.40;63.20
9425;DHT22;17139;52.140;11.636;2023-08-30T04:35:18;13.20;63.60
9425;DHT22;17139;52.140;11.636;2023-08-30T04:37:45;13.10;63.90
9425;DHT22;17139;52.140;11.636;2023-08-30T04:40:14;13.10;64.10
9425;DHT22;17139;52.140;11.636;2023-08-30T04:42:41;13.70;63.60
9425;DHT22;17139;52.140;11.636;2023-08-30T04:45:09;14.30;62.50
9425;DHT22;17139;52.140;11.636;2023-08-30T04:47:36;13.90;62.50
9425;DHT22;17139;52.140;11.636;2023-08-30T04:50:04;14.30;62.50
9425;DHT22;17139;52.140;11.636;2023-08-30T04:52:33;14.70;61.80
9425;DHT22;17139;52.140;11.636;2023-08-30T04:55:00;14.40;62.10
9425;DHT22;17139;52.140;11.636;2023-08-30T04:57:27;14.00;62.40
9425;DHT22;17139;52.140;11.636;2023-08-30T04:59:54;13.90;63.20
9425;DHT22;17139;52.140;11.636;2023-08-30T05:02:21;13.70;63.20
9425;DHT22;17139;52.140;11.636;2023-08-30T05:04:48;13.70;64.00
9425;DHT22;17139;52.140;11.636;2023-08-30T05:07:15;13.50;63.60
9425;DHT22;17139;52.140;11.636;2023-08-30T05:09:44;13.30;63.80
9425;DHT22;17139;52.140;11.636;2023-08-30T05:12:11;13.20;64.20
9425;DHT22;17139;52.140;11.636;2023-08-30T05:14:38;13.10;64.20
9425;DHT22;17139;52.140;11.636;2023-08-30T05:17:06;13.10;64.30
9425;DHT22;17139;52.140;11.636;2023-08-30T05:19:33;13.00;64.30
9425;DHT22;17139;52.140;11.636;2023-08-30T05:22:00;13.00;64.30
9425;DHT22;17139;52.140;11.636;2023-08-30T05:24:27;12.90;64.30
9425;DHT22;17139;52.140;11.636;2023-08-30T05:26:56;13.10;64.50
9425;DHT22;17139;52.140;11.636;2023-08-30T05:29:23;13.00;63.90
9425;DHT22;17139;52.140;11.636;2023-08-30T05:31:50;13.10;64.20
9425;DHT22;17139;52.140;11.636;2023-08-30T05:34:17;13.10;63.70
9425;DHT22;17139;52.140;11.636;2023-08-30T05:36:44;13.10;64.00
9425;DHT22;17139;52.140;11.636;2023-08-30T05:39:11;13.10;64.00
9425;DHT22;17139;52.140;11.636;2023-08-30T05:41:38;13.00;63.90
9425;DHT22;17139;52.140;11.636;2023-08-30T05:44:07;13.00;63.90
9425;DHT22;17139;52.140;11.636;2023-08-30T05:46:34;13.10;64.00
9425;DHT22;17139;52.140;11.636;2023-08-30T05:49:02;13.10;64.00
9425;DHT22;17139;52.140;11.636;2023-08-30T05:51:29;13.20;64.10
9425;DHT22;17139;52.140;11.636;2023-08-30T05:53:56;13.30;64.10
9425;DHT22;17139;52.140;11.636;2023-08-30T05:56:23;13.60;64.00
9425;DHT22;17139;52.140;11.636;2023-08-30T05:58:50;13.70;63.40
9425;DHT22;17139;52.140;11.636;2023-08-30T06:01:19;13.70;63.40
9425;DHT22;17139;52.140;11.636;2023-08-30T06:03:46;13.80;63.40
9425;DHT22;17139;52.140;11.636;2023-08-30T06:06:13;13.80;63.30
9425;DHT22;17139;52.140;11.636;2023-08-30T06:08:40;13.90;63.30
9425;DHT22;17139;52.140;11.636;2023-08-30T06:11:07;13.90;63.20
9425;DHT22;17139;52.140;11.636;2023-08-30T06:13:34;13.90;63.30
9425;DHT22;17139;52.140;11.636;2023-08-30T06:16:01;14.30;62.90
9425;DHT22;17139;52.140;11.636;2023-08-30T06:18:30;14.40;62.40
9425;DHT22;17139;52.140;11.636;2023-08-30T06:20:57;14.40;62.50
9425;DHT22;17139;52.140;11.636;2023-08-30T06:23:25;14.30;62.60
9425;DHT22;17139;52.140;11.636;2023-08-30T06:25:55;14.30;62.70
9425;DHT22;17139;52.140;11.636;2023-08-30T06:28:22;14.30;62.80
9425;DHT22;17139;52.140;11.636;2023-08-30T06:30:50;14.30;62.80
9425;DHT22;17139;52.140;11.636;2023-08-30T06:33:17;14.30;62.90
9425;DHT22;17139;52.140;11.636;2023-08-30T06:35:47;14.40;62.90
9425;DHT22;17139;52.140;11.636;2023-08-30T06:38:14;14.50;62.80
9425;DHT22;17139;52.140;11.636;2023-08-30T06:40:43;14.60;62.70
9425;DHT22;17139;52.140;11.636;2023-08-30T06:43:10;15.00;62.20
9425;DHT22;17139;52.140;11.636;2023-08-30T06:45:38;15.00;61.80
9425;DHT22;17139;52.140;11.636;2023-08-30T06:48:06;15.30;61.60
9425;DHT22;17139;52.140;11.636;2023-08-30T06:50:33;15.40;61.50
9425;DHT22;17139;52.140;11.636;2023-08-30T06:53:02;15.40;61.40
9425;DHT22;17139;52.140;11.636;2023-08-30T06:55:29;15.60;61.40
9425;DHT22;17139;52.140;11.636;2023-08-30T06:57:57;15.60;61.20
9425;DHT22;17139;52.140;11.636;2023-08-30T07:00:24;15.70;61.00
9425;DHT22;17139;52.140;11.636;2023-08-30T07:02:51;15.70;61.00
9425;DHT22;17139;52.140;11.636;2023-08-30T07:05:18;15.70;60.90
9425;DHT22;17139;52.140;11.636;2023-08-30T07:07:45;15.90;60.50
9425;DHT22;17139;52.140;11.636;2023-08-30T07:10:13;15.90;60.60
9425;DHT22;17139;52.140;11.636;2023-08-30T07:12:40;15.90;60.90
9425;DHT22;17139;52.140;11.636;2023-08-30T07:15:08;15.90;61.00
9425;DHT22;17139;52.140;11.636;2023-08-30T07:17:36;15.90;61.00
9425;DHT22;17139;52.140;11.636;2023-08-30T07:20:03;15.90;61.00
9425;DHT22;17139;52.140;11.636;2023-08-30T07:22:34;15.90;61.00
9425;DHT22;17139;52.140;11.636;2023-08-30T07:25:01;15.90;61.00
9425;DHT22;17139;52.140;11.636;2023-08-30T07:27:30;15.90;60.80
9425;DHT22;17139;52.140;11.636;2023-08-30T07:29:57;15.90;60.70
9425;DHT22;17139;52.140;11.636;2023-08-30T07:32:24;15.90;60.80
9425;DHT22;17139;52.140;11.636;2023-08-30T07:34:51;16.00;60.90
9425;DHT22;17139;52.140;11.636;2023-08-30T07:37:19;16.00;60.80
9425;DHT22;17139;52.140;11.636;2023-08-30T07:39:46;16.10;60.80
9425;DHT22;17139;52.140;11.636;2023-08-30T07:42:13;16.30;60.40
9425;DHT22;17139;52.140;11.636;2023-08-30T07:44:42;16.40;60.40
9425;DHT22;17139;52.140;11.636;2023-08-30T07:47:09;16.40;60.50
9425;DHT22;17139;52.140;11.636;2023-08-30T07:49:36;16.30;60.60
9425;DHT22;17139;52.140;11.636;2023-08-30T07:52:04;16.40;60.30
9425;DHT22;17139;52.140;11.636;2023-08-30T07:54:31;16.40;60.30
9425;DHT22;17139;52.140;11.636;2023-08-30T07:56:58;16.40;60.20
9425;DHT22;17139;52.140;11.636;2023-08-30T07:59:25;16.50;60.20
9425;DHT22;17139;52.140;11.636;2023-08-30T08:01:53;16.80;60.10
9425;DHT22;17139;52.140;11.636;2023-08-30T08:04:21;16.90;59.50
9425;DHT22;17139;52.140;11.636;2023-08-30T08:06:48;17.10;58.50
9425;DHT22;17139;52.140;11.636;2023-08-30T08:09:15;17.10;58.90
9425;DHT22;17139;52.140;11.636;2023-08-30T08:11:42;17.00;59.00
9425;DHT22;17139;52.140;11.636;2023-08-30T08:14:10;17.00;59.40
9425;DHT22;17139;52.140;11.636;2023-08-30T08:16:38;17.10;59.50
9425;DHT22;17139;52.140;11.636;2023-08-30T08:19:07;17.60;57.40
9425;DHT22;17139;52.140;11.636;2023-08-30T08:21:34;17.60;58.10
9425;DHT22;17139;52.140;11.636;2023-08-30T08:24:01;17.60;58.00
9425;DHT22;17139;52.140;11.636;2023-08-30T08:26:28;17.60;58.20
9425;DHT22;17139;52.140;11.636;2023-08-30T08:28:56;17.90;57.60
9425;DHT22;17139;52.140;11.636;2023-08-30T08:31:23;17.90;58.30
9425;DHT22;17139;52.140;11.636;2023-08-30T08:33:52;18.00;58.40
9425;DHT22;17139;52.140;11.636;2023-08-30T08:36:32;18.00;58.40
9425;DHT22;17139;52.140;11.636;2023-08-30T08:38:59;18.10;58.50
9425;DHT22;17139;52.140;11.636;2023-08-30T08:41:30;18.30;58.60
9425;DHT22;17139;52.140;11.636;2023-08-30T08:44:00;18.40;58.20
9425;DHT22;17139;52.140;11.636;2023-08-30T08:46:29;18.50;58.10
9425;DHT22;17139;52.140;11.636;2023-08-30T08:48:57;19.20;55.30
9425;DHT22;17139;52.140;11.636;2023-08-30T08:51:26;19.20;56.60
9425;DHT22;17139;52.140;11.636;2023-08-30T08:53:55;19.20;56.80
9425;DHT22;17139;52.140;11.636;2023-08-30T08:56:29;19.20;56.90
9425;DHT22;17139;52.140;11.636;2023-08-30T08:58:56;19.20;57.20
9425;DHT22;17139;52.140;11.636;2023-08-30T09:01:24;19.30;57.50
9425;DHT22;17139;52.140;11.636;2023-08-30T09:03:51;19.30;57.00
9425;DHT22;17139;52.140;11.636;2023-08-30T09:06:19;19.50;57.20
9425;DHT22;17139;52.140;11.636;2023-08-30T09:08:46;19.60;57.20
9425;DHT22;17139;52.140;11.636;2023-08-30T09:11:14;19.70;56.90
9425;DHT22;17139;52.140;11.636;2023-08-30T09:13:42;19.80;56.90
9425;DHT22;17139;52.140;11.636;2023-08-30T09:16:13;20.60;52.40
9425;DHT22;17139;52.140;11.636;2023-08-30T09:18:40;20.50;54.70
9425;DHT22;17139;52.140;11.636;2023-08-30T09:21:08;20.90;51.60
9425;DHT22;17139;52.140;11.636;2023-08-30T09:23:35;20.60;53.80
9425;DHT22;17139;52.140;11.636;2023-08-30T09:26:03;20.40;54.90
9425;DHT22;17139;52.140;11.636;2023-08-30T09:28:41;20.40;55.40
9425;DHT22;17139;52.140;11.636;2023-08-30T09:31:17;20.50;55.40
9425;DHT22;17139;52.140;11.636;2023-08-30T09:33:46;20.60;55.20
9425;DHT22;17139;52.140;11.636;2023-08-30T09:36:14;20.50;55.20
9425;DHT22;17139;52.140;11.636;2023-08-30T09:38:48;20.50;55.30
9425;DHT22;17139;52.140;11.636;2023-08-30T09:41:16;20.50;55.20
9425;DHT22;17139;52.140;11.636;2023-08-30T09:43:45;20.50;55.40
9425;DHT22;17139;52.140;11.636;2023-08-30T09:46:13;21.00;51.40
9425;DHT22;17139;52.140;11.636;2023-08-30T09:48:41;21.00;53.60
9425;DHT22;17139;52.140;11.636;2023-08-30T09:51:08;20.90;54.10
9425;DHT22;17139;52.140;11.636;2023-08-30T09:53:42;20.80;54.40
9425;DHT22;17139;52.140;11.636;2023-08-30T09:56:12;20.90;54.60
9425;DHT22;17139;52.140;11.636;2023-08-30T09:58:41;21.00;54.30
9425;DHT22;17139;52.140;11.636;2023-08-30T10:01:10;21.10;54.60
9425;DHT22;17139;52.140;11.636;2023-08-30T10:03:38;21.30;54.50
9425;DHT22;17139;52.140;11.636;2023-08-30T10:06:06;21.80;50.30
9425;DHT22;17139;52.140;11.636;2023-08-30T10:08:34;21.70;52.50
9425;DHT22;17139;52.140;11.636;2023-08-30T10:11:02;22.00;50.40
9425;DHT22;17139;52.140;11.636;2023-08-30T10:13:30;22.00;52.20
9425;DHT22;17139;52.140;11.636;2023-08-30T10:16:00;22.10;52.40
9425;DHT22;17139;52.140;11.636;2023-08-30T10:18:32;22.10;52.50
9425;DHT22;17139;52.140;11.636;2023-08-30T10:21:04;22.20;52.80
9425;DHT22;17139;52.140;11.636;2023-08-30T10:23:34;22.20;52.80
9425;DHT22;17139;52.140;11.636;2023-08-30T10:26:04;22.20;52.80
9425;DHT22;17139;52.140;11.636;2023-08-30T10:28:31;22.20;52.80
9425;DHT22;17139;52.140;11.636;2023-08-30T10:30:59;22.20;52.80
9425;DHT22;17139;52.140;11.636;2023-08-30T10:33:26;22.20;53.20
9425;DHT22;17139;52.140;11.636;2023-08-30T10:36:04;22.80;48.50
9425;DHT22;17139;52.140;11.636;2023-08-30T10:38:32;22.60;50.80
9425;DHT22;17139;52.140;11.636;2023-08-30T10:41:07;22.40;50.80
9425;DHT22;17139;52.140;11.636;2023-08-30T10:43:35;22.20;52.10
9425;DHT22;17139;52.140;11.636;2023-08-30T10:46:03;22.00;52.80
9425;DHT22;17139;52.140;11.636;2023-08-30T10:48:39;21.90;52.60
9425;DHT22;17139;52.140;11.636;2023-08-30T10:51:21;21.80;52.80
9425;DHT22;17139;52.140;11.636;2023-08-30T10:53:58;21.90;53.20
9425;DHT22;17139;52.140;11.636;2023-08-30T10:56:29;21.90;52.90
9425;DHT22;17139;52.140;11.636;2023-08-30T10:58:56;21.90;53.10
9425;DHT22;17139;52.140;11.636;2023-08-30T11:01:23;21.90;53.30
9425;DHT22;17139;52.140;11.636;2023-08-30T11:03:51;21.90;53.20
9425;DHT22;17139;52.140;11.636;2023-08-30T11:06:20;21.80;52.60
9425;DHT22;17139;52.140;11.636;2023-08-30T11:08:48;22.50;48.00
9425;DHT22;17139;52.140;11.636;2023-08-30T11:11:15;22.20;50.80
9425;DHT22;17139;52.140;11.636;2023-08-30T11:13:42;21.90;51.50
9425;DHT22;17139;52.140;11.636;2023-08-30T11:16:09;21.70;52.00
9425;DHT22;17139;52.140;11.636;2023-08-30T11:18:37;21.70;52.50
9425;DHT22;17139;52.140;11.636;2023-08-30T11:21:07;21.70;52.50
9425;DHT22;17139;52.140;11.636;2023-08-30T11:23:36;21.60;52.80
9425;DHT22;17139;52.140;11.636;2023-08-30T11:26:03;21.50;52.90
9425;DHT22;17139;52.140;11.636;2023-08-30T11:28:30;22.00;49.60
9425;DHT22;17139;52.140;11.636;2023-08-30T11:30:57;21.70;51.60
9425;DHT22;17139;52.140;11.636;2023-08-30T11:33:24;22.10;48.90
9425;DHT22;17139;52.140;11.636;2023-08-30T11:35:52;21.90;51.00
9425;DHT22;17139;52.140;11.636;2023-08-30T11:38:20;21.80;51.80
9425;DHT22;17139;52.140;11.636;2023-08-30T11:40:51;21.70;52.10
9425;DHT22;17139;52.140;11.636;2023-08-30T11:43:18;21.70;52.20
9425;DHT22;17139;52.140;11.636;2023-08-30T11:45:56;21.70;52.50
9425;DHT22;17139;52.140;11.636;2023-08-30T11:48:23;21.70;52.50
9425;DHT22;17139;52.140;11.636;2023-08-30T11:50:50;21.70;52.50
9425;DHT22;17139;52.140;11.636;2023-08-30T11:53:18;22.10;49.40
9425;DHT22;17139;52.140;11.636;2023-08-30T11:55:45;22.00;51.10
9425;DHT22;17139;52.140;11.636;2023-08-30T11:58:14;22.30;48.80
9425;DHT22;17139;52.140;11.636;2023-08-30T12:00:41;22.20;50.60
9425;DHT22;17139;52.140;11.636;2023-08-30T12:03:08;22.10;51.10
9425;DHT22;17139;52.140;11.636;2023-08-30T12:05:35;22.10;51.40
9425;DHT22;17139;52.140;11.636;2023-08-30T12:08:18;22.20;51.90
9425;DHT22;17139;52.140;11.636;2023-08-30T12:10:45;22.40;51.80
9425;DHT22;17139;52.140;11.636;2023-08-30T12:13:21;22.50;51.90
9425;DHT22;17139;52.140;11.636;2023-08-30T12:15:49;22.70;50.30
9425;DHT22;17139;52.140;11.636;2023-08-30T12:18:16;22.60;51.10
9425;DHT22;17139;52.140;11.636;2023-08-30T12:20:53;22.70;49.50
9425;DHT22;17139;52.140;11.636;2023-08-30T12:23:21;23.40;46.90
9425;DHT22;17139;52.140;11.636;2023-08-30T12:26:06;23.10;48.80
9425;DHT22;17139;52.140;11.636;2023-08-30T12:28:36;23.00;49.30
9425;DHT22;17139;52.140;11.636;2023-08-30T12:31:04;22.80;49.60
9425;DHT22;17139;52.140;11.636;2023-08-30T12:33:31;22.70;50.00
9425;DHT22;17139;52.140;11.636;2023-08-30T12:35:59;22.70;50.10
9425;DHT22;17139;52.140;11.636;2023-08-30T12:38:27;22.90;50.20
9425;DHT22;17139;52.140;11.636;2023-08-30T12:40:55;23.10;50.30
9425;DHT22;17139;52.140;11.636;2023-08-30T12:43:23;23.20;49.80
9425;DHT22;17139;52.140;11.636;2023-08-30T12:45:51;23.80;46.00
9425;DHT22;17139;52.140;11.636;2023-08-30T12:48:18;23.50;48.30
9425;DHT22;17139;52.140;11.636;2023-08-30T12:50:46;23.30;48.90
9425;DHT22;17139;52.140;11.636;2023-08-30T12:53:14;23.20;49.50
9425;DHT22;17139;52.140;11.636;2023-08-30T12:55:42;23.10;50.10
9425;DHT22;17139;52.140;11.636;2023-08-30T12:58:09;22.90;50.20
9425;DHT22;17139;52.140;11.636;2023-08-30T13:00:37;22.80;50.40
9425;DHT22;17139;52.140;11.636;2023-08-30T13:03:06;22.70;50.00
9425;DHT22;17139;52.140;11.636;2023-08-30T13:05:33;23.20;44.10
9425;DHT22;17139;52.140;11.636;2023-08-30T13:08:03;22.90;47.70
9425;DHT22;17139;52.140;11.636;2023-08-30T13:10:30;23.20;45.20
9425;DHT22;17139;52.140;11.636;2023-08-30T13:12:57;22.90;47.60
9425;DHT22;17139;52.140;11.636;2023-08-30T13:15:24;22.60;48.60
9425;DHT22;17139;52.140;11.636;2023-08-30T13:17:51;22.40;49.20
9425;DHT22;17139;52.140;11.636;2023-08-30T13:20:20;22.30;49.50
9425;DHT22;17139;52.140;11.636;2023-08-30T13:22:47;22.20;49.80
9425;DHT22;17139;52.140;11.636;2023-08-30T13:25:14;22.10;49.80
9425;DHT22;17139;52.140;11.636;2023-08-30T13:27:41;22.40;46.80
9425;DHT22;17139;52.140;11.636;2023-08-30T13:30:08;22.40;48.60
9425;DHT22;17139;52.140;11.636;2023-08-30T13:32:36;22.30;49.20
9425;DHT22;17139;52.140;11.636;2023-08-30T13:35:03;22.30;49.30
9425;DHT22;17139;52.140;11.636;2023-08-30T13:37:32;22.30;49.40
9425;DHT22;17139;52.140;11.636;2023-08-30T13:39:59;22.40;49.60
9425;DHT22;17139;52.140;11.636;2023-08-30T13:42:26;22.90;47.10
9425;DHT22;17139;52.140;11.636;2023-08-30T13:44:53;23.20;45.70
9425;DHT22;17139;52.140;11.636;2023-08-30T13:47:20;23.70;44.50
9425;DHT22;17139;52.140;11.636;2023-08-30T13:49:47;23.40;46.30
9425;DHT22;17139;52.140;11.636;2023-08-30T13:52:14;23.20;47.90
9425;DHT22;17139;52.140;11.636;2023-08-30T13:54:42;23.10;47.70
9425;DHT22;17139;52.140;11.636;2023-08-30T13:57:09;23.00;48.00
9425;DHT22;17139;52.140;11.636;2023-08-30T13:59:36;22.90;48.50
9425;DHT22;17139;52.140;11.636;2023-08-30T14:02:04;22.90;48.60
9425;DHT22;17139;52.140;11.636;2023-08-30T14:04:31;22.90;49.30
9425;DHT22;17139;52.140;11.636;2023-08-30T14:06:59;22.90;49.80
9425;DHT22;17139;52.140;11.636;2023-08-30T14:09:27;23.00;49.60
9425;DHT22;17139;52.140;11.636;2023-08-30T14:11:56;23.00;49.40
9425;DHT22;17139;52.140;11.636;2023-08-30T14:14:23;22.90;49.00
9425;DHT22;17139;52.140;11.636;2023-08-30T14:16:50;23.60;44.80
9425;DHT22;17139;52.140;11.636;2023-08-30T14:19:17;23.20;46.90
9425;DHT22;17139;52.140;11.636;2023-08-30T14:21:44;23.00;48.10
9425;DHT22;17139;52.140;11.636;2023-08-30T14:24:11;22.80;48.70
9425;DHT22;17139;52.140;11.636;2023-08-30T14:26:38;22.70;49.40
9425;DHT22;17139;52.140;11.636;2023-08-30T14:29:07;22.60;49.50
9425;DHT22;17139;52.140;11.636;2023-08-30T14:31:34;22.50;49.30
9425;DHT22;17139;52.140;11.636;2023-08-30T14:34:00;22.70;47.40
9425;DHT22;17139;52.140;11.636;2023-08-30T14:36:28;22.60;48.80
9425;DHT22;17139;52.140;11.636;2023-08-30T14:38:55;22.70;48.00
9425;DHT22;17139;52.140;11.636;2023-08-30T14:41:22;22.40;48.70
9425;DHT22;17139;52.140;11.636;2023-08-30T14:43:49;22.20;49.30
9425;DHT22;17139;52.140;11.636;2023-08-30T14:46:17;22.10;49.70
9425;DHT22;17139;52.140;11.636;2023-08-30T14:48:45;22.10;50.10
9425;DHT22;17139;52.140;11.636;2023-08-30T14:51:12;22.00;50.00
9425;DHT22;17139;52.140;11.636;2023-08-30T14:53:39;22.00;50.10
9425;DHT22;17139;52.140;11.636;2023-08-30T14:56:06;21.90;50.30
9425;DHT22;17139;52.140;11.636;2023-08-30T14:58:34;22.40;48.00
9425;DHT22;17139;52.140;11.636;2023-08-30T15:01:02;22.20;49.20
9425;DHT22;17139;52.140;11.636;2023-08-30T15:03:30;22.60;46.90
9425;DHT22;17139;52.140;11.636;2023-08-30T15:05:58;22.20;48.20
9425;DHT22;17139;52.140;11.636;2023-08-30T15:08:25;22.60;46.30
9425;DHT22;17139;52.140;11.636;2023-08-30T15:10:52;22.20;47.90
9425;DHT22;17139;52.140;11.636;2023-08-30T15:13:20;22.00;48.90
9425;DHT22;17139;52.140;11.636;2023-08-30T15:15:47;21.80;49.30
9425;DHT22;17139;52.140;11.636;2023-08-30T15:18:14;21.70;49.80
9425;DHT22;17139;52.140;11.636;2023-08-30T15:20:42;22.30;47.20
9425;DHT22;17139;52.140;11.636;2023-08-30T15:23:12;22.10;48.40
9425;DHT22;17139;52.140;11.636;2023-08-30T15:25:43;22.60;46.90
9425;DHT22;17139;52.140;11.636;2023-08-30T15:28:11;22.20;48.10
9425;DHT22;17139;52.140;11.636;2023-08-30T15:30:38;22.10;48.80
9425;DHT22;17139;52.140;11.636;2023-08-30T15:33:08;22.00;49.00
9425;DHT22;17139;52.140;11.636;2023-08-30T15:35:37;22.00;49.30